地図

経路データ

SID SEASON NUMBER BASIN SUBBASIN NAME ISO_TIME NATURE LAT LON WMO_WIND WMO_PRES WMO_AGENCY TRACK_TYPE DIST2LAND LANDFALL IFLAG USA_AGENCY USA_ATCF_ID USA_LAT USA_LON USA_RECORD USA_STATUS USA_WIND USA_PRES USA_SSHS USA_R34_NE USA_R34_SE USA_R34_SW USA_R34_NW USA_R50_NE USA_R50_SE USA_R50_SW USA_R50_NW USA_R64_NE USA_R64_SE USA_R64_SW USA_R64_NW USA_POCI USA_ROCI USA_RMW USA_EYE TOKYO_LAT TOKYO_LON TOKYO_GRADE TOKYO_WIND TOKYO_PRES TOKYO_R50_DIR TOKYO_R50_LONG TOKYO_R50_SHORT TOKYO_R30_DIR TOKYO_R30_LONG TOKYO_R30_SHORT TOKYO_LAND CMA_LAT CMA_LON CMA_CAT CMA_WIND CMA_PRES HKO_LAT HKO_LON HKO_CAT HKO_WIND HKO_PRES NEWDELHI_LAT NEWDELHI_LON NEWDELHI_GRADE NEWDELHI_WIND NEWDELHI_PRES NEWDELHI_CI NEWDELHI_DP NEWDELHI_POCI REUNION_LAT REUNION_LON REUNION_TYPE REUNION_WIND REUNION_PRES REUNION_TNUM REUNION_CI REUNION_RMW REUNION_R34_NE REUNION_R34_SE REUNION_R34_SW REUNION_R34_NW REUNION_R50_NE REUNION_R50_SE REUNION_R50_SW REUNION_R50_NW REUNION_R64_NE REUNION_R64_SE REUNION_R64_SW REUNION_R64_NW BOM_LAT BOM_LON BOM_TYPE BOM_WIND BOM_PRES BOM_TNUM BOM_CI BOM_RMW BOM_R34_NE BOM_R34_SE BOM_R34_SW BOM_R34_NW BOM_R50_NE BOM_R50_SE BOM_R50_SW BOM_R50_NW BOM_R64_NE BOM_R64_SE BOM_R64_SW BOM_R64_NW BOM_ROCI BOM_POCI BOM_EYE BOM_POS_METHOD BOM_PRES_METHOD NADI_LAT NADI_LON NADI_CAT NADI_WIND NADI_PRES WELLINGTON_LAT WELLINGTON_LON WELLINGTON_WIND WELLINGTON_PRES DS824_LAT DS824_LON DS824_STAGE DS824_WIND DS824_PRES TD9636_LAT TD9636_LON TD9636_STAGE TD9636_WIND TD9636_PRES TD9635_LAT TD9635_LON TD9635_WIND TD9635_PRES TD9635_ROCI NEUMANN_LAT NEUMANN_LON NEUMANN_CLASS NEUMANN_WIND NEUMANN_PRES MLC_LAT MLC_LON MLC_CLASS MLC_WIND MLC_PRES USA_GUST BOM_GUST BOM_GUST_PER REUNION_GUST REUNION_GUST_PER USA_SEAHGT USA_SEARAD_NE USA_SEARAD_SE USA_SEARAD_SW USA_SEARAD_NW STORM_SPEED STORM_DIR
1985162N05154 1985 43 WP MM HAL 1985-06-11 00:00:00 NR 4.90000 154.200 main 927 923 __________O___ -1 4.90000 154.200 0 1 290
1985162N05154 1985 43 WP MM HAL 1985-06-11 03:00:00 NR 4.92344 154.136 main 923 923 __________P___ -1 4.92344 154.136 0 1 290
1985162N05154 1985 43 WP MM HAL 1985-06-11 06:00:00 NR 4.94750 154.068 main 923 923 __________P___ -1 4.94750 154.068 0 2 289
1985162N05154 1985 43 WP MM HAL 1985-06-11 09:00:00 NR 4.97281 153.990 main 929 925 __________P___ -1 4.97281 153.990 0 2 287
1985162N05154 1985 43 WP MM HAL 1985-06-11 12:00:00 NR 5.00000 153.900 main 925 921 __________O___ -1 5.00000 153.900 0 2 286
1985162N05154 1985 43 WP MM HAL 1985-06-11 15:00:00 NR 5.02906 153.793 main 921 917 __________P___ -1 5.02906 153.793 0 2 284
1985162N05154 1985 43 WP MM HAL 1985-06-11 18:00:00 NR 5.05750 153.673 main 927 920 __________P___ -1 5.05750 153.673 0 3 282
1985162N05154 1985 43 WP MM HAL 1985-06-11 21:00:00 NR 5.08218 153.540 main 920 917 __________P___ -1 5.08218 153.540 0 3 279
1985162N05154 1985 43 WP MM HAL 1985-06-12 00:00:00 NR 5.10000 153.400 main 917 913 __________O___ -1 5.10000 153.400 0 3 275
1985162N05154 1985 43 WP MM HAL 1985-06-12 03:00:00 NR 5.10718 153.257 main 913 907 __________P___ -1 5.10718 153.257 0 3 271
1985162N05154 1985 43 WP MM HAL 1985-06-12 06:00:00 NR 5.10750 153.107 main 907 904 __________P___ -1 5.10750 153.107 0 3 269
1985162N05154 1985 43 WP MM HAL 1985-06-12 09:00:00 NR 5.10406 152.954 main 904 899 __________P___ -1 5.10406 152.954 0 3 269
1985162N05154 1985 43 WP MM HAL 1985-06-12 12:00:00 NR 5.10000 152.800 main 899 896 __________O___ -1 5.10000 152.800 0 3 269
1985162N05154 1985 43 WP MM HAL 1985-06-12 15:00:00 NR 5.09594 152.642 main 894 892 __________P___ -1 5.09594 152.642 0 3 269
1985162N05154 1985 43 WP MM HAL 1985-06-12 18:00:00 NR 5.09250 152.485 main 892 887 __________P___ -1 5.09250 152.485 0 3 269
1985162N05154 1985 43 WP MM HAL 1985-06-12 21:00:00 NR 5.09282 152.336 main 887 885 __________P___ -1 5.09282 152.336 0 3 272
1985162N05154 1985 43 WP MM HAL 1985-06-13 00:00:00 NR 5.10000 152.200 main 885 884 __________O___ -1 5.10000 152.200 0 2 276
1985162N05154 1985 43 WP MM HAL 1985-06-13 03:00:00 NR 5.11778 152.094 main 884 882 __________P___ -1 5.11778 152.094 0 2 282
1985162N05154 1985 43 WP MM HAL 1985-06-13 06:00:00 NR 5.14246 152.000 main 882 882 __________P___ -1 5.14246 152.000 0 2 286
1985162N05154 1985 43 WP MM HAL 1985-06-13 09:00:00 NR 5.17091 151.906 main 892 890 __________P___ -1 5.17091 151.906 0 2 286
1985162N05154 1985 43 WP MM HAL 1985-06-13 12:00:00 NR 5.20000 151.800 main 890 889 __________O___ -1 5.20000 151.800 0 2 284
1985162N05154 1985 43 WP MM HAL 1985-06-13 15:00:00 NR 5.22497 151.681 main 889 888 __________P___ -1 5.22497 151.681 0 3 281
1985162N05154 1985 43 WP MM HAL 1985-06-13 18:00:00 NR 5.24995 151.545 main 887 887 __________P___ -1 5.24995 151.545 0 3 280
1985162N05154 1985 43 WP MM HAL 1985-06-13 21:00:00 NR 5.27496 151.387 main 898 897 __________P___ -1 5.27496 151.387 0 3 278
1985162N05154 1985 43 WP MM HAL 1985-06-14 00:00:00 NR 5.30000 151.200 main 897 896 __________O___ -1 5.30000 151.200 0 4 277
1985162N05154 1985 43 WP MM HAL 1985-06-14 03:00:00 NR 5.32506 150.963 main 896 896 __________P___ -1 5.32506 150.963 0 5 276
1985162N05154 1985 43 WP MM HAL 1985-06-14 06:00:00 NR 5.35009 150.700 main 907 907 __________P___ -1 5.35009 150.700 0 5 275
1985162N05154 1985 43 WP MM HAL 1985-06-14 09:00:00 NR 5.37506 150.438 main 904 896 __________P___ -1 5.37506 150.438 0 5 276
1985162N05154 1985 43 WP MM HAL 1985-06-14 12:00:00 NR 5.40000 150.200 main 896 892 __________O___ -1 5.40000 150.200 0 4 275
1985162N05154 1985 43 WP MM HAL 1985-06-14 15:00:00 NR 5.40862 150.054 main 892 885 __________P___ -1 5.40862 150.054 0 3 274
1985162N05154 1985 43 WP MM HAL 1985-06-14 18:00:00 NR 5.41980 149.930 main 885 881 __________P___ -1 5.41980 149.930 0 3 278
1985162N05154 1985 43 WP MM HAL 1985-06-14 21:00:00 NR 5.44610 149.791 main 881 881 __________P___ -1 5.44610 149.791 0 3 284
1985162N05154 1985 43 WP MM HAL 1985-06-15 00:00:00 NR 5.50000 149.600 main 886 883 __________O___ -1 5.50000 149.600 0 5 288
1985162N05154 1985 43 WP MM HAL 1985-06-15 03:00:00 NR 5.59626 149.320 main 888 885 __________P___ -1 5.59626 149.320 0 7 290
1985162N05154 1985 43 WP MM HAL 1985-06-15 06:00:00 NR 5.72000 148.982 main 892 889 __________P___ -1 5.72000 148.982 0 8 290
1985162N05154 1985 43 WP MM HAL 1985-06-15 09:00:00 NR 5.85873 148.604 main 906 903 __________P___ -1 5.85873 148.604 0 8 290
1985162N05154 1985 43 WP MM HAL 1985-06-15 12:00:00 NR 6.00000 148.200 main 912 910 __________O___ -1 6.00000 148.200 0 8 288
1985162N05154 1985 43 WP MM HAL 1985-06-15 15:00:00 NR 6.11685 147.796 main 919 919 __________P___ -1 6.11685 147.796 0 9 286
1985162N05154 1985 43 WP MM HAL 1985-06-15 18:00:00 NR 6.23497 147.372 main 930 930 __________P___ -1 6.23497 147.372 0 9 286
1985162N05154 1985 43 WP MM HAL 1985-06-15 21:00:00 NR 6.36059 146.937 main 952 952 __________P___ -1 6.36059 146.937 0 9 287
1985162N05154 1985 43 WP MM HAL 1985-06-16 00:00:00 NR 6.50000 146.500 main 963 963 __________O___ -1 6.50000 146.500 0 9 289
1985162N05154 1985 43 WP MM HAL 1985-06-16 03:00:00 NR 6.64828 146.083 main 976 976 __________P___ -1 6.64828 146.083 0 9 291
1985162N05154 1985 43 WP MM HAL 1985-06-16 06:00:00 NR 6.81228 145.665 main 1002 1002 __________P___ -1 6.81228 145.665 0 9 292
1985162N05154 1985 43 WP MM HAL 1985-06-16 09:00:00 NR 6.99514 145.239 main 1031 1031 __________P___ -1 6.99514 145.239 0 9 294
1985162N05154 1985 43 WP MM HAL 1985-06-16 12:00:00 NR 7.20000 144.800 main 1061 1061 __________O___ -1 7.20000 144.800 0 10 295
1985162N05154 1985 43 WP MM HAL 1985-06-16 15:00:00 NR 7.41618 144.339 main 1094 1094 __________P___ -1 7.41618 144.339 0 10 296
1985162N05154 1985 43 WP MM HAL 1985-06-16 18:00:00 NR 7.65490 143.865 main 1138 1138 __________P___ -1 7.65490 143.865 0 11 298
1985162N05154 1985 43 WP MM HAL 1985-06-16 21:00:00 NR 7.91616 143.383 main 1175 1175 __________P___ -1 7.91616 143.383 0 11 300
1985162N05154 1985 43 WP MM HAL 1985-06-17 00:00:00 NR 8.20000 142.900 main 1213 1205 __________O___ -1 8.20000 142.900 0 11 300
1985162N05154 1985 43 WP MM HAL 1985-06-17 03:00:00 NR 8.47077 142.429 main 1223 1223 __________P___ -1 8.47077 142.429 0 17 321
1985162N05154 1985 43 WP MM HAL 1985-06-17 06:00:00 TS 9.51381 141.825 main 1306 1306 __O_______P___ -1 12.5000 141.300 0 19 1002 8.76727 141.957 0 21 328
1985162N05154 1985 43 WP MM HAL 1985-06-17 09:00:00 TS 10.2551 141.299 main 1376 1374 __P_______P___ -1 12.5550 140.933 0 19 1002 9.10513 141.481 0 17 322
1985162N05154 1985 43 WP MM HAL 1985-06-17 12:00:00 TS 10.8286 140.786 main 1408 1408 __O_______O___ -1 12.6000 140.500 0 19 1002 9.50000 141.000 0 15 315
1985162N05154 1985 43 WP MM HAL 1985-06-17 15:00:00 TS 11.3033 140.242 main 1436 1436 __P_______P___ -1 12.6352 139.977 0 21 1002 9.97142 140.507 0 13 307
1985162N05154 1985 43 WP MM HAL 1985-06-17 18:00:00 TS 11.5987 139.754 main 1454 1450 __O_______P___ -1 12.7000 139.500 1 23 1002 10.4973 140.007 0 11 307
1985162N05154 1985 43 WP MM HAL 1985-06-17 21:00:00 TS 11.9459 139.369 main 1472 1441 __P_______P___ -1 12.8423 139.235 1 23 1002 11.0495 139.504 0 10 314
1985162N05154 1985 43 WP MM HAL 1985-06-18 00:00:00 TS 12.3000 139.000 main 1441 1405 __O_______O___ -1 13.0000 139.000 1 23 1002 11.6000 139.000 0 10 312
1985162N05154 1985 43 WP MM HAL 1985-06-18 03:00:00 TS 12.6336 138.578 main 1405 1366 __P_______P___ -1 13.1001 138.615 1 23 1001 12.1672 138.541 0 11 308
1985162N05154 1985 43 WP MM HAL 1985-06-18 06:00:00 TS 12.9593 138.138 main 1357 1319 __O_______P___ -1 13.2000 138.200 1 23 1001 12.7185 138.075 0 11 308
1985162N05154 1985 43 WP MM HAL 1985-06-18 09:00:00 TS 13.2765 137.719 main 1319 1281 __P_______P___ -1 13.3423 137.865 1 23 1001 13.2107 137.572 0 10 304
1985162N05154 1985 43 WP MM HAL 1985-06-18 12:00:00 TS 13.5500 137.250 main 1283 1222 __O_______O___ -1 13.5000 137.500 1 23 1001 13.6000 137.000 0 12 294
1985162N05154 1985 43 WP MM HAL 1985-06-18 15:00:00 TS 13.7519 136.641 main 1214 1153 __P_______P___ -1 13.6575 137.023 1 26 1001 13.8463 136.260 0 13 286
1985162N05154 1985 43 WP MM HAL 1985-06-18 18:00:00 TS 13.8935 135.981 main 1153 1091 __O_______P___ -1 13.8000 136.500 1 29 1001 13.9870 135.462 0 13 280
1985162N05154 1985 43 WP MM HAL 1985-06-18 21:00:00 TS 13.9831 135.352 main 1091 1019 __P_______P___ -1 13.9072 136.022 1 29 1001 14.0589 134.682 0 13 278
1985162N05154 1985 43 WP MM HAL 1985-06-19 00:00:00 TS 14.0700 134.660 998 tokyo main 1019 955 _OOO______O___ -1 14.5000 133.000 2 998 0 0 0 14.0000 135.500 1 29 1001 13.8000 135.600 TD 25 998 14.1000 134.000 0 13 278
1985162N05154 1985 43 WP MM HAL 1985-06-19 03:00:00 TS 14.1469 134.073 main 955 905 _PPP______P___ -1 14.5501 132.748 2 997 0 0 14.0927 134.850 1 29 1000 13.8302 134.922 TD 25 997 14.1578 133.533 0 11 278
1985162N05154 1985 43 WP MM HAL 1985-06-19 06:00:00 TS 14.2195 133.538 996 tokyo main 894 855 OOOO______P___ jtwc_wp WP051985 14.2000 133.500 25 -1 14.6000 132.500 2 996 0 0 0 14.2000 134.200 1 29 1000 13.9000 134.200 TD 25 996 14.1980 133.167 0 10 279
1985162N05154 1985 43 WP MM HAL 1985-06-19 09:00:00 TS 14.3101 133.044 main 845 807 PPPP______P___ WP051985 14.2427 133.003 27 -1 14.6499 132.257 2 995 0 0 14.3497 133.678 1 29 999 14.0351 133.420 TD 25 996 14.2393 132.842 0 9 281
1985162N05154 1985 43 WP MM HAL 1985-06-19 12:00:00 TS 14.4053 132.584 994 tokyo main 807 769 OOOO______O___ jtwc_wp WP051985 14.3000 132.500 30 -1 14.7000 132.000 2 994 0 0 0 14.5000 133.200 1 29 998 14.2000 132.700 TD 25 996 14.3000 132.500 1 30 9 282
1985162N05154 1985 43 WP MM HAL 1985-06-19 15:00:00 TS 14.4952 132.130 main 759 722 PPPP______P___ WP051985 14.3849 131.992 32 -1 14.7424 131.722 2 993 0 0 14.5996 132.737 1 33 996 14.3496 132.162 TD 27 995 14.3992 132.036 1 33 9 283
1985162N05154 1985 43 WP MM HAL 1985-06-19 18:00:00 TS 14.6039 131.669 992 tokyo main 722 677 OOOO______P___ jtwc_wp WP051985 14.5000 131.500 35 0 14.8000 131.400 2 992 0 0 0 14.7000 132.200 2 38 995 14.5000 131.700 TD 30 994 14.5196 131.547 1 37 10 284
1985162N05154 1985 43 WP MM HAL 1985-06-19 21:00:00 TS 14.7366 131.149 main 667 633 PPPP______P___ WP051985 14.6424 131.035 40 0 14.8925 131.015 2 988 0 0 14.8505 131.443 2 43 990 14.6424 131.192 TD 37 989 14.6551 131.059 1 41 10 285
1985162N05154 1985 43 WP MM HAL 1985-06-20 00:00:00 TS 14.8800 130.640 50 985 tokyo main 628 597 OOOO______O___ jtwc_wp WP051985 14.8000 130.600 45 0 15.0000 130.600 4 50 985 0 9 250 250 0 15.0000 130.700 3 48 985 14.8000 130.700 TS 45 984 14.8000 130.600 2 45 10 287
1985162N05154 1985 43 WP MM HAL 1985-06-20 03:00:00 TS 15.0163 130.205 main 597 566 PPPP______P___ WP051985 14.9499 130.192 55 0 15.0924 130.200 4 57 982 0 9 275 275 15.0921 130.197 3 53 982 14.9999 130.243 TS 47 982 14.9474 130.193 2 55 9 289
1985162N05154 1985 43 WP MM HAL 1985-06-20 06:00:00 TS 15.1600 129.800 65 980 tokyo main 573 545 OOOO______O___ jtwc_wp WP051985 15.1000 129.800 65 1 15.2000 129.800 5 65 980 9 50 50 9 300 300 0 15.2000 129.800 3 58 980 15.2000 129.800 STS 50 980 15.1000 129.800 3 65 8 291
1985162N05154 1985 43 WP MM HAL 1985-06-20 09:00:00 TS 15.3114 129.398 main 545 526 PPPP______P___ WP051985 15.2423 129.415 65 1 15.3423 129.422 5 65 977 9 100 65 9 350 350 15.3700 129.377 3 58 977 15.3574 129.357 STS 52 977 15.2448 129.417 3 65 9 292
1985162N05154 1985 43 WP MM HAL 1985-06-20 12:00:00 TS 15.4800 128.980 65 975 tokyo main 526 490 OOOO______O___ jtwc_wp WP051985 15.4000 129.000 65 1 15.5000 129.000 5 65 975 3 150 80 9 400 400 0 15.6000 129.000 3 58 975 15.5000 128.900 STS 55 975 15.4000 129.000 4 65 9 293
1985162N05154 1985 43 WP MM HAL 1985-06-20 15:00:00 TS 15.6660 128.536 main 484 451 PPPP______P___ WP051985 15.5923 128.537 70 1 15.6425 128.472 5 65 975 3 150 80 9 400 400 15.9068 128.767 3 63 972 15.6349 128.415 STS 57 972 15.5533 128.490 4 70 10 293
1985162N05154 1985 43 WP MM HAL 1985-06-20 18:00:00 TS 15.8651 128.023 65 975 tokyo main 447 399 OOOO______P___ jtwc_wp WP051985 15.8000 128.000 75 1 15.8000 127.900 5 65 975 3 150 80 9 400 400 0 16.2000 128.400 4 68 970 15.8000 127.900 STS 60 970 15.7253 127.914 4 75 12 290
1985162N05154 1985 43 WP MM HAL 1985-06-20 21:00:00 TS 16.0610 127.398 main 405 364 PPPP______P___ WP051985 15.9926 127.365 80 1 15.9997 127.365 5 65 972 3 150 90 9 400 400 16.3584 127.587 4 68 970 16.0199 127.365 STS 62 970 15.9346 127.306 4 80 13 289
1985162N05154 1985 43 WP MM HAL 1985-06-21 00:00:00 TS 16.2800 126.740 65 970 tokyo main 364 343 OOOO______O___ jtwc_wp WP051985 16.2000 126.700 85 2 16.2000 126.800 5 65 970 3 150 100 9 400 400 0 16.5000 126.700 4 68 970 16.3000 126.800 T 65 970 16.2000 126.700 4 85 13 291
1985162N05154 1985 43 WP MM HAL 1985-06-21 03:00:00 TS 16.5190 126.150 main 340 330 PPPP______P___ WP051985 16.3974 126.077 87 2 16.2974 126.164 5 67 967 3 150 100 9 400 400 16.7119 126.105 4 72 967 16.6348 126.215 T 67 967 16.5532 126.187 4 87 12 296
1985162N05154 1985 43 WP MM HAL 1985-06-21 06:00:00 TS 16.8321 125.575 70 965 tokyo main 330 266 OOOO______P___ jtwc_wp WP051985 16.7000 125.500 90 2 16.5000 125.500 5 70 965 3 150 100 9 400 400 0 17.0000 125.600 4 77 965 17.0000 125.600 T 70 965 16.9603 125.674 4 90 13 305
1985162N05154 1985 43 WP MM HAL 1985-06-21 09:00:00 TS 17.2676 125.016 main 267 216 PPPP______P___ WP051985 17.2193 125.037 92 2 16.9972 124.858 5 70 965 3 150 100 9 400 400 17.3920 125.087 4 77 963 17.3422 124.972 T 70 965 17.3873 125.124 4 92 14 309
1985162N05154 1985 43 WP MM HAL 1985-06-21 12:00:00 TS 17.7400 124.400 70 965 tokyo main 216 149 OOOO______O___ jtwc_wp WP051985 17.8000 124.500 95 2 17.6000 124.200 5 70 965 3 150 100 9 400 400 0 17.8000 124.500 4 77 962 17.7000 124.300 T 70 965 17.8000 124.500 4 95 16 304
1985162N05154 1985 43 WP MM HAL 1985-06-21 15:00:00 TS 18.1642 123.640 main 137 64 PPPP______P___ WP051985 18.3028 123.695 95 2 18.1372 123.515 5 75 962 3 150 125 9 400 400 18.1001 123.737 4 77 960 18.0998 123.572 T 72 962 18.1813 123.682 4 92 17 298
1985162N05154 1985 43 WP MM HAL 1985-06-21 18:00:00 TS 18.5472 122.820 80 960 tokyo main 53 35 OOOO______P___ jtwc_wp WP051985 18.7000 122.800 95 2 18.6000 122.800 5 80 960 9 150 150 9 400 400 0 18.4000 122.900 4 77 958 18.5000 122.800 T 75 960 18.5358 122.800 4 90 17 295
1985162N05154 1985 43 WP MM HAL 1985-06-21 21:00:00 TS 18.9046 121.975 main 56 56 PPPP______P___ WP051985 18.9602 121.925 90 2 18.9902 122.013 5 80 960 9 175 175 9 400 400 18.8377 122.048 4 77 959 18.8879 121.948 T 77 960 18.8470 121.942 4 87 16 292
1985162N05154 1985 43 WP MM HAL 1985-06-22 00:00:00 TS 19.1600 121.240 80 960 tokyo main 74 67 OOOO______O___ jtwc_wp WP051985 19.1000 121.200 85 2 19.2000 121.300 5 80 960 9 200 200 9 400 400 0 19.2000 121.300 4 77 960 19.2000 121.200 T 80 960 19.1000 121.200 4 85 12 286
1985162N05154 1985 43 WP MM HAL 1985-06-22 03:00:00 TS 19.2296 120.757 main 67 67 PPPP______P___ WP051985 19.1493 120.790 82 1 19.0997 120.774 5 80 960 9 187 187 9 375 375 19.2795 120.774 4 77 960 19.3719 120.739 T 80 960 19.2476 120.705 4 83 8 278
1985162N05154 1985 43 WP MM HAL 1985-06-22 06:00:00 TS 19.2694 120.407 80 960 tokyo main 88 88 OOOO______P___ jtwc_wp WP051985 19.2000 120.500 80 1 19.0000 120.400 5 80 960 9 175 175 9 350 350 0 19.3000 120.400 4 77 960 19.5000 120.400 T 80 960 19.3470 120.334 4 82 7 288
1985162N05154 1985 43 WP MM HAL 1985-06-22 09:00:00 TS 19.4425 120.070 main 115 115 PPPP______P___ WP051985 19.3550 120.107 80 1 19.2397 120.143 5 77 960 9 175 175 9 350 350 19.4697 120.092 4 77 961 19.7000 119.985 T 80 960 19.4481 120.021 4 81 8 303
1985162N05154 1985 43 WP MM HAL 1985-06-22 12:00:00 TS 19.6800 119.740 75 960 tokyo main 168 168 OOOO______O___ jtwc_wp WP051985 19.6000 119.700 80 1 19.6000 119.900 5 75 960 9 175 175 9 350 350 0 19.7000 119.800 4 77 962 19.9000 119.600 T 80 960 19.6000 119.700 4 80 8 307
1985162N05154 1985 43 WP MM HAL 1985-06-22 15:00:00 TS 19.9340 119.377 main 206 206 PPPP______P___ WP051985 19.9348 119.315 85 2 19.8848 119.552 5 75 962 9 162 162 9 325 325 19.9274 119.430 4 77 963 20.0271 119.322 T 77 962 19.8959 119.268 4 85 9 307
1985162N05154 1985 43 WP MM HAL 1985-06-22 18:00:00 TS 20.2285 118.963 75 965 tokyo main 259 258 OOOO______P___ jtwc_wp WP051985 20.3000 118.900 90 2 20.2000 119.100 5 75 965 9 150 150 9 300 300 0 20.2000 119.000 4 77 965 20.2000 119.000 T 75 965 20.2425 118.816 4 90 11 307
1985162N05154 1985 43 WP MM HAL 1985-06-22 21:00:00 TS 20.5847 118.452 main 270 266 PPPP______P___ WP051985 20.6150 118.407 95 2 20.6228 118.508 5 75 965 9 137 137 9 250 250 20.5500 118.508 4 77 965 20.5427 118.480 T 72 965 20.5928 118.356 4 95 12 305
1985162N05154 1985 43 WP MM HAL 1985-06-23 00:00:00 TS 20.9200 117.920 75 965 tokyo main 266 226 OOOO______O___ jtwc_wp WP051985 20.9000 117.900 100 3 21.0000 117.900 5 75 965 9 125 125 9 200 200 0 20.9000 118.000 4 77 965 20.9000 117.900 T 70 965 20.9000 117.900 4 100 11 301
1985162N05154 1985 43 WP MM HAL 1985-06-23 03:00:00 TS 21.1591 117.442 main 211 186 PPPP______P___ WP051985 21.1874 117.435 97 3 21.1872 117.427 5 75 965 9 125 125 9 200 200 21.1873 117.542 4 77 965 21.1374 117.377 T 70 965 21.0964 117.430 4 97 10 295
1985162N05154 1985 43 WP MM HAL 1985-06-23 06:00:00 TS 21.3290 116.995 75 965 tokyo main 186 164 OOOO______P___ jtwc_wp WP051985 21.4000 117.000 95 2 21.3000 117.000 5 75 965 9 125 125 9 200 200 0 21.4000 117.100 4 77 965 21.3000 116.900 T 70 965 21.2452 116.974 4 95 9 289
1985162N05154 1985 43 WP MM HAL 1985-06-23 09:00:00 TS 21.4433 116.548 main 161 140 PPPP______P___ WP051985 21.4649 116.577 92 2 21.4501 116.520 5 75 965 9 125 125 9 200 200 21.5225 116.627 4 77 965 21.4074 116.462 T 70 965 21.3715 116.556 4 92 8 285
1985162N05154 1985 43 WP MM HAL 1985-06-23 12:00:00 TS 21.5400 116.160 75 965 tokyo main 140 112 OOOO______O___ jtwc_wp WP051985 21.5000 116.200 90 2 21.6000 116.100 5 75 965 9 125 125 9 200 200 0 21.6000 116.200 4 77 965 21.5000 116.100 T 70 965 21.5000 116.200 4 90 7 290
1985162N05154 1985 43 WP MM HAL 1985-06-23 15:00:00 TS 21.6741 115.848 main 111 100 PPPP______P___ WP051985 21.6275 115.855 87 2 21.7573 115.820 5 72 967 9 125 125 9 200 200 21.6924 115.847 4 72 967 21.6424 115.805 T 70 965 21.6511 115.911 4 87 6 299
1985162N05154 1985 43 WP MM HAL 1985-06-23 18:00:00 TS 21.8224 115.617 70 970 tokyo main 100 89 OOOO______P___ jtwc_wp WP051985 21.8000 115.600 85 2 21.9000 115.600 5 70 970 9 125 125 9 200 200 0 21.8000 115.600 4 68 970 21.8000 115.600 T 70 965 21.8119 115.687 4 85 5 307
1985162N05154 1985 43 WP MM HAL 1985-06-23 21:00:00 TS 21.9513 115.450 main 75 60 PPPP______P___ WP051985 21.9774 115.462 82 1 21.9625 115.327 5 65 972 9 137 137 9 225 225 21.9049 115.462 4 68 970 21.9199 115.477 T 70 965 21.9919 115.520 4 82 4 321
1985162N05154 1985 43 WP MM HAL 1985-06-24 00:00:00 TS 22.1400 115.340 60 975 tokyo main 60 22 OOOO______O___ jtwc_wp WP051985 22.2000 115.400 80 1 22.1000 115.100 4 60 975 9 150 150 9 250 250 0 22.1000 115.400 4 68 970 22.1000 115.400 T 70 965 22.2000 115.400 4 80 6 341
1985162N05154 1985 43 WP MM HAL 1985-06-24 03:00:00 TS 22.4779 115.254 main 22 0 PPPP______P___ WP051985 22.4925 115.342 77 1 22.4924 114.970 4 60 977 9 135 135 9 225 225 22.5000 115.343 4 58 972 22.4425 115.300 T 67 967 22.4623 115.315 4 72 7 349
1985162N05154 1985 43 WP MM HAL 1985-06-24 06:00:00 TS 22.8300 115.194 60 980 tokyo main 0 0 OOOO______P___ jtwc_wp WP051985 22.8000 115.300 75 1 22.9000 114.900 4 60 980 9 120 120 9 200 200 0 22.9000 115.300 3 48 975 22.8000 115.200 T 65 970 22.7498 115.270 4 65 6 349
1985162N05154 1985 43 WP MM HAL 1985-06-24 09:00:00 TS 23.0495 115.142 main 0 0 PPPP______P___ WP051985 23.0650 115.250 62 0 23.0650 114.850 4 55 980 9 9 200 150 23.0574 115.272 3 43 977 23.0225 115.100 T 55 977 23.0374 115.240 4 57 4 346
1985162N05154 1985 43 WP MM HAL 1985-06-24 12:00:00 TS 23.2400 115.080 50 980 tokyo main 0 0 OOOO______O___ jtwc_wp WP051985 23.3000 115.200 50 0 23.2000 114.800 4 50 980 0 3 200 100 0 23.2000 115.200 2 38 980 23.2000 115.000 TS 45 984 23.3000 115.200 2 50 5 341
1985162N05154 1985 43 WP MM HAL 1985-06-24 15:00:00 TS 23.4818 114.981 main 0 0 PPPP______P___ WP051985 23.5150 115.165 45 0 23.4700 114.678 4 45 982 0 3 190 75 23.5276 115.015 2 33 982 23.3775 114.915 TS 42 984 23.5189 115.131 2 45 6 338
1985162N05154 1985 43 WP MM HAL 1985-06-24 18:00:00 TS 23.7500 114.861 40 985 tokyo main 0 0 OOOO______P___ jtwc_wp WP051985 23.7000 115.100 40 0 23.8000 114.600 3 40 985 0 3 180 50 0 23.9000 114.800 1 29 985 23.6000 114.800 TS 40 985 23.7002 115.035 2 40 6 339
1985162N05154 1985 43 WP MM HAL 1985-06-24 21:00:00 TS 24.0314 114.747 main 0 0 PPPP______P___ WP051985 23.8650 114.965 35 0 24.1575 114.670 3 37 987 0 3 180 50 24.2150 114.583 1 24 986 23.9201 114.620 TS 37 987 23.8564 114.922 2 35 6 344
1985162N05154 1985 43 WP MM HAL 1985-06-25 00:00:00 TS 24.3308 114.677 35 990 tokyo main 0 0 OOOO______O___ jtwc_wp WP051985 24.0000 114.800 30 -1 24.5000 114.800 3 35 990 0 3 180 50 0 24.5000 114.500 0 19 988 24.3000 114.400 TS 35 990 24.0000 114.800 1 30 6 3
1985162N05154 1985 43 WP MM HAL 1985-06-25 03:00:00 TS 24.6335 114.750 main 0 0 PPP___________ WP051985 24.1075 114.645 27 -1 24.7724 114.870 3 991 0 3 24.7575 114.682 0 19 989 TS 1 6 23
1985162N05154 1985 43 WP MM HAL 1985-06-25 06:00:00 TS 24.9111 114.944 992 tokyo main 0 0 OOO___________ jtwc_wp WP051985 24.2000 114.500 25 -1 25.0000 115.000 2 992 0 0 0 25.0000 115.000 0 19 990 1 8 39
1985162N05154 1985 43 WP MM HAL 1985-06-25 09:00:00 TS 25.2174 115.266 main 0 0 _PP___________ WP051985 -1 25.1850 115.263 2 993 0 0 25.2498 115.270 0 19 991 1 8 48
1985162N05154 1985 43 WP MM HAL 1985-06-25 12:00:00 TS 25.4500 115.600 994 tokyo main 0 0 _OO___________ -1 25.4000 115.600 2 994 0 0 0 25.5000 115.600 0 19 993 8 53
1985162N05154 1985 43 WP MM HAL 1985-06-25 15:00:00 TS 25.7202 116.011 main 0 0 _PP___________ -1 25.7126 115.965 2 995 0 0 25.7278 116.058 0 19 993 9 50
1985162N05154 1985 43 WP MM HAL 1985-06-25 18:00:00 TS 26.0500 116.400 996 tokyo main 0 0 _OO___________ -1 26.1000 116.300 2 996 0 0 0 26.0000 116.500 0 19 993 9 36
1985162N05154 1985 43 WP MM HAL 1985-06-25 21:00:00 TS 26.4671 116.622 main 0 0 _PP___________ -1 26.5494 116.463 2 996 0 0 26.3848 116.780 0 19 994 9 25
1985162N05154 1985 43 WP MM HAL 1985-06-26 00:00:00 TS 26.9000 116.850 996 tokyo main 0 0 _OO___________ -1 27.0000 116.700 2 996 0 0 0 26.8000 117.000 0 19 995 9 35
1985162N05154 1985 43 WP MM HAL 1985-06-26 03:00:00 TS 27.2349 117.219 main 0 0 _PP___________ -1 27.3356 117.263 2 996 0 0 27.1343 117.176 0 19 995 10 47
1985162N05154 1985 43 WP MM HAL 1985-06-26 06:00:00 TS 27.6000 117.700 996 tokyo main 0 0 _OO___________ -1 27.7000 117.900 2 996 0 0 0 27.5000 117.500 0 19 995 13 49
1985162N05154 1985 43 WP MM HAL 1985-06-26 09:00:00 TS 28.0768 118.322 main 0 0 _PP___________ -1 28.2119 118.351 2 996 0 0 27.9418 118.293 0 19 995 15 45
1985162N05154 1985 43 WP MM HAL 1985-06-26 12:00:00 TS 28.6500 118.900 996 tokyo main 0 0 _OO___________ -1 28.8000 118.800 2 996 0 0 0 28.5000 119.000 0 19 995 15 31
1985162N05154 1985 43 WP MM HAL 1985-06-26 15:00:00 TS 29.3282 119.169 main 0 0 _PP___________ -1 29.4077 119.392 2 996 0 0 29.2488 118.947 0 19 995 14 20
1985162N05154 1985 43 WP MM HAL 1985-06-26 18:00:00 TS 30.0000 119.450 996 tokyo main 0 0 _OO___________ -1 30.0000 120.000 2 996 0 0 0 30.0000 118.900 0 19 995 14 32
1985162N05154 1985 43 WP MM HAL 1985-06-26 21:00:00 TS 30.5341 120.047 main 0 0 _PP___________ -1 30.5146 120.516 2 996 0 0 30.5536 119.579 0 19 995 15 48
1985162N05154 1985 43 WP MM HAL 1985-06-27 00:00:00 TS 31.0000 120.750 996 tokyo main 0 0 _OO___________ -1 31.0000 121.000 2 996 0 0 0 31.0000 120.500 0 19 995 15 51
1985162N05154 1985 43 WP MM HAL 1985-06-27 03:00:00 TS 31.4725 121.405 main 9 0 _PP___________ -1 31.4998 121.501 2 996 0 0 31.4452 121.310 0 24 995 14 50
1985162N05154 1985 43 WP MM HAL 1985-06-27 06:00:00 MX 31.8857 122.000 996 tokyo main 21 21 _OO___________ -1 32.0000 122.000 2 996 0 0 0 31.8000 122.000 9 29 995 11 51
1985162N05154 1985 43 WP MM HAL 1985-06-27 09:00:00 MX 32.1961 122.449 main 69 69 _PP___________ -1 32.5004 122.499 2 996 0 0 32.0439 122.424 9 29 995 9 56
1985162N05154 1985 43 WP MM HAL 1985-06-27 12:00:00 ET 32.3600 122.840 996 tokyo main 112 112 _OO___________ -1 33.0000 123.000 6 996 0 0 0 32.2000 122.800 9 29 995 8 81
1985162N05154 1985 43 WP MM HAL 1985-06-27 15:00:00 ET 32.3222 123.348 main 147 147 __P___________ -1 6 0 0 32.3222 123.348 9 29 995 10 88
1985162N05154 1985 43 WP MM HAL 1985-06-27 18:00:00 ET 32.4000 124.000 main 212 165 __O___________ -1 32.4000 124.000 9 29 995 12 83
1985162N05154 1985 43 WP MM HAL 1985-06-27 21:00:00 ET 32.4560 124.730 main 165 107 __P___________ -1 32.4560 124.730 9 29 996 13 85
1985162N05154 1985 43 WP MM HAL 1985-06-28 00:00:00 ET 32.5000 125.500 main 107 __O___________ -1 32.5000 125.500 9 29 998 13 86

デジタル台風データ・検索

IBTrACS Databaseについて

本データベースは、米国NOAAが公開する1842年以降の世界の熱帯低気圧のベストトラックデータアーカイブInternational Best Track Archive for Climate Stewardship (IBTrACS)を、ウェブで閲覧しやすい形式に変換したものです。

最終更新日:2021-10-08